Impacts METAR Board
IDs:

KORD - Chicago/O'Hare Intl, IL, US

Updated at: 2000 UTC 25 Apr 2018
Potential Impact None Slight Moderate High
Time 25/08Z 25/09Z 25/10Z 25/11Z 25/12Z 25/13Z 25/14Z 25/15Z 25/16Z 25/17Z 25/18Z 25/19Z 25/20Z
Temp47 46 44 43 44 45 47 49 51 51 52 51 52
Dewpt29 29 30 31 32 33 31 30 29 30 30 30 32
Altim30.04 30.05 30.05 30.08 30.09 30.10 30.11 30.12 30.11 30.11 30.09 30.09 30.06
VIS10 10 10 10 10 10 10 10 10 10 10 10 10
CIG29 33 250 250 -- -- -- -- -- -- -- -- --
CoverOVCOVCOVCBKNSCTSCTFEWFEWFEWFEWFEWFEWFEW
FltCatMVFRVFRVFRVFRVFRVFRVFRVFRVFRVFRVFRVFRVFR
WX--------------------------
WDir201010103601020104050505060
WSpd22 18 16 14 12 17 17 16 18 14 16 10 12
WGst29 -- -- -- -- -- -- -- 23 -- 21 -- --
Raw hourly METARs
KORD 250751Z 02022G29KT 10SM OVC029 08/M02 A3004 RMK AO2 PK WND 01031/0734 SLP174 T00831017
KORD 250851Z 01018KT 10SM OVC033 08/M02 A3005 RMK AO2 PK WND 02031/0756 SLP176 T00781017 51004
KORD 250951Z 01016KT 10SM FEW034 OVC250 07/M01 A3005 RMK AO2 SLP178 T00671011
KORD 251051Z 01014KT 10SM FEW034 FEW085 BKN250 06/M01 A3008 RMK AO2 SLP186 T00611006
KORD 251151Z 36012KT 10SM FEW085 SCT250 07/00 A3009 RMK AO2 SLP192 T00670000 10094 20061 53015
KORD 251251Z 01017KT 10SM SCT250 07/01 A3010 RMK AO2 SLP196 T00720006
KORD 251351Z 02017KT 10SM FEW250 08/M01 A3011 RMK AO2 SLP197 T00831006
KORD 251451Z 01016KT 10SM FEW250 09/M01 A3012 RMK AO2 SLP202 T00941011 53009
KORD 251551Z 04018G23KT 10SM FEW250 11/M02 A3011 RMK AO2 SLP197 T01061017
KORD 251651Z 05014KT 10SM FEW250 11/M01 A3011 RMK AO2 SLP198 T01061011
KORD 251751Z 05016G21KT 10SM FEW250 11/M01 A3009 RMK AO2 SLP191 T01111011 10117 20067 58010
KORD 251851Z 05010KT 10SM FEW045 FEW250 11/M01 A3009 RMK AO2 SLP190 T01061011
KORD 251951Z 06012KT 10SM FEW045 FEW250 11/00 A3006 RMK AO2 SLP182 T01110000



Page loaded:  20:15 UTC  |   01:15 PM Pacific  |   02:15 PM Mountain  |   03:15 PM Central  |   04:15 PM Eastern

 

ADVISORIES

FORECASTS

FORECASTS

OBSERVATIONS

USER TOOLS

ABOUT US